sensor_id;sensor_type;location;lat;lon;timestamp;P1;durP1;ratioP1;P2;durP2;ratioP2
67074;SDS011;53990;50.334;18.640;2022-09-12T00:00:50;12.50;;;7.60;;
67074;SDS011;53990;50.334;18.640;2022-09-12T00:03:37;9.40;;;7.20;;
67074;SDS011;53990;50.334;18.640;2022-09-12T00:06:31;13.10;;;7.70;;
67074;SDS011;53990;50.334;18.640;2022-09-12T00:09:02;16.20;;;8.30;;
67074;SDS011;53990;50.334;18.640;2022-09-12T00:11:30;11.00;;;7.80;;
67074;SDS011;53990;50.334;18.640;2022-09-12T00:14:00;11.30;;;8.00;;
67074;SDS011;53990;50.334;18.640;2022-09-12T00:16:30;10.90;;;8.20;;
67074;SDS011;53990;50.334;18.640;2022-09-12T00:18:58;10.20;;;8.10;;
67074;SDS011;53990;50.334;18.640;2022-09-12T00:21:26;10.50;;;8.30;;
67074;SDS011;53990;50.334;18.640;2022-09-12T00:23:54;10.20;;;7.60;;
67074;SDS011;53990;50.334;18.640;2022-09-12T00:26:21;12.00;;;7.70;;
67074;SDS011;53990;50.334;18.640;2022-09-12T00:28:48;12.00;;;7.70;;
67074;SDS011;53990;50.334;18.640;2022-09-12T00:31:20;11.50;;;8.00;;
67074;SDS011;53990;50.334;18.640;2022-09-12T00:33:47;12.70;;;9.80;;
67074;SDS011;53990;50.334;18.640;2022-09-12T00:36:17;15.10;;;9.00;;
67074;SDS011;53990;50.334;18.640;2022-09-12T00:38:44;11.60;;;8.20;;
67074;SDS011;53990;50.334;18.640;2022-09-12T00:41:16;13.50;;;8.40;;
67074;SDS011;53990;50.334;18.640;2022-09-12T00:43:46;10.20;;;7.50;;
67074;SDS011;53990;50.334;18.640;2022-09-12T00:51:56;15.00;;;9.20;;
67074;SDS011;53990;50.334;18.640;2022-09-12T00:54:33;13.20;;;8.70;;
67074;SDS011;53990;50.334;18.640;2022-09-12T00:57:04;10.70;;;8.20;;
67074;SDS011;53990;50.334;18.640;2022-09-12T00:59:50;15.50;;;9.50;;
67074;SDS011;53990;50.334;18.640;2022-09-12T01:02:20;11.70;;;8.40;;
67074;SDS011;53990;50.334;18.640;2022-09-12T01:04:47;10.20;;;8.20;;
67074;SDS011;53990;50.334;18.640;2022-09-12T01:07:15;11.50;;;8.30;;
67074;SDS011;53990;50.334;18.640;2022-09-12T01:09:43;12.80;;;8.80;;
67074;SDS011;53990;50.334;18.640;2022-09-12T01:12:12;10.50;;;8.10;;
67074;SDS011;53990;50.334;18.640;2022-09-12T01:14:40;13.60;;;8.20;;
67074;SDS011;53990;50.334;18.640;2022-09-12T01:17:11;10.60;;;7.70;;
67074;SDS011;53990;50.334;18.640;2022-09-12T01:32:07;11.60;;;8.10;;
67074;SDS011;53990;50.334;18.640;2022-09-12T01:34:46;11.70;;;8.20;;
67074;SDS011;53990;50.334;18.640;2022-09-12T01:37:30;12.40;;;8.40;;
67074;SDS011;53990;50.334;18.640;2022-09-12T01:40:30;13.30;;;8.40;;
67074;SDS011;53990;50.334;18.640;2022-09-12T01:43:15;11.70;;;8.10;;
67074;SDS011;53990;50.334;18.640;2022-09-12T01:45:55;11.00;;;7.40;;
67074;SDS011;53990;50.334;18.640;2022-09-12T01:49:01;9.50;;;7.50;;
67074;SDS011;53990;50.334;18.640;2022-09-12T01:51:37;10.40;;;7.70;;
67074;SDS011;53990;50.334;18.640;2022-09-12T01:56:37;11.90;;;7.70;;
67074;SDS011;53990;50.334;18.640;2022-09-12T01:59:30;10.70;;;7.90;;
67074;SDS011;53990;50.334;18.640;2022-09-12T02:02:06;10.50;;;7.00;;
67074;SDS011;53990;50.334;18.640;2022-09-12T02:04:43;9.20;;;7.40;;
67074;SDS011;53990;50.334;18.640;2022-09-12T02:07:18;11.90;;;8.80;;
67074;SDS011;53990;50.334;18.640;2022-09-12T02:10:09;10.00;;;7.50;;
67074;SDS011;53990;50.334;18.640;2022-09-12T02:12:48;11.10;;;7.00;;
67074;SDS011;53990;50.334;18.640;2022-09-12T02:15:17;11.10;;;8.10;;
67074;SDS011;53990;50.334;18.640;2022-09-12T02:17:49;11.80;;;7.00;;
67074;SDS011;53990;50.334;18.640;2022-09-12T02:20:22;12.00;;;7.10;;
67074;SDS011;53990;50.334;18.640;2022-09-12T02:22:52;12.20;;;7.60;;
67074;SDS011;53990;50.334;18.640;2022-09-12T02:25:21;9.90;;;7.20;;
67074;SDS011;53990;50.334;18.640;2022-09-12T02:27:52;9.70;;;7.00;;
67074;SDS011;53990;50.334;18.640;2022-09-12T02:30:21;11.00;;;7.40;;
67074;SDS011;53990;50.334;18.640;2022-09-12T02:38:43;12.70;;;8.50;;
67074;SDS011;53990;50.334;18.640;2022-09-12T02:41:13;15.90;;;7.80;;
67074;SDS011;53990;50.334;18.640;2022-09-12T02:43:41;10.50;;;7.10;;
67074;SDS011;53990;50.334;18.640;2022-09-12T02:46:20;10.00;;;7.00;;
67074;SDS011;53990;50.334;18.640;2022-09-12T02:48:48;10.10;;;7.30;;
67074;SDS011;53990;50.334;18.640;2022-09-12T02:51:15;10.10;;;7.30;;
67074;SDS011;53990;50.334;18.640;2022-09-12T02:53:43;10.50;;;6.80;;
67074;SDS011;53990;50.334;18.640;2022-09-12T02:56:16;10.70;;;7.50;;
67074;SDS011;53990;50.334;18.640;2022-09-12T02:58:44;11.10;;;7.20;;
67074;SDS011;53990;50.334;18.640;2022-09-12T03:01:46;14.90;;;8.60;;
67074;SDS011;53990;50.334;18.640;2022-09-12T03:04:46;14.50;;;8.90;;
67074;SDS011;53990;50.334;18.640;2022-09-12T03:13:22;22.10;;;11.10;;
67074;SDS011;53990;50.334;18.640;2022-09-12T03:16:20;23.40;;;13.20;;
67074;SDS011;53990;50.334;18.640;2022-09-12T03:22:07;22.00;;;15.10;;
67074;SDS011;53990;50.334;18.640;2022-09-12T03:25:02;23.80;;;14.40;;
67074;SDS011;53990;50.334;18.640;2022-09-12T03:27:37;21.80;;;14.90;;
67074;SDS011;53990;50.334;18.640;2022-09-12T03:30:07;18.00;;;10.50;;
67074;SDS011;53990;50.334;18.640;2022-09-12T03:32:49;11.40;;;7.20;;
67074;SDS011;53990;50.334;18.640;2022-09-12T03:35:19;13.10;;;7.50;;
67074;SDS011;53990;50.334;18.640;2022-09-12T03:37:47;11.90;;;6.50;;
67074;SDS011;53990;50.334;18.640;2022-09-12T03:40:14;12.10;;;6.30;;
67074;SDS011;53990;50.334;18.640;2022-09-12T03:42:42;9.60;;;7.30;;
67074;SDS011;53990;50.334;18.640;2022-09-12T03:45:09;12.50;;;7.10;;
67074;SDS011;53990;50.334;18.640;2022-09-12T03:47:37;11.20;;;7.20;;
67074;SDS011;53990;50.334;18.640;2022-09-12T03:50:05;11.40;;;7.10;;
67074;SDS011;53990;50.334;18.640;2022-09-12T03:52:33;10.20;;;7.40;;
67074;SDS011;53990;50.334;18.640;2022-09-12T03:55:00;11.10;;;7.30;;
67074;SDS011;53990;50.334;18.640;2022-09-12T03:57:28;9.70;;;6.90;;
67074;SDS011;53990;50.334;18.640;2022-09-12T03:59:55;12.10;;;6.80;;
67074;SDS011;53990;50.334;18.640;2022-09-12T04:02:22;10.60;;;6.50;;
67074;SDS011;53990;50.334;18.640;2022-09-12T04:04:49;11.10;;;7.50;;
67074;SDS011;53990;50.334;18.640;2022-09-12T04:07:16;14.20;;;8.20;;
67074;SDS011;53990;50.334;18.640;2022-09-12T04:09:43;14.60;;;9.10;;
67074;SDS011;53990;50.334;18.640;2022-09-12T04:12:11;20.80;;;11.60;;
67074;SDS011;53990;50.334;18.640;2022-09-12T04:14:39;22.70;;;14.50;;
67074;SDS011;53990;50.334;18.640;2022-09-12T04:17:07;20.50;;;15.20;;
67074;SDS011;53990;50.334;18.640;2022-09-12T04:19:34;18.80;;;14.00;;
67074;SDS011;53990;50.334;18.640;2022-09-12T04:22:01;20.60;;;14.20;;
67074;SDS011;53990;50.334;18.640;2022-09-12T04:24:29;19.20;;;13.50;;
67074;SDS011;53990;50.334;18.640;2022-09-12T04:26:56;18.80;;;12.60;;
67074;SDS011;53990;50.334;18.640;2022-09-12T04:29:23;20.90;;;12.80;;
67074;SDS011;53990;50.334;18.640;2022-09-12T04:31:51;16.90;;;11.00;;
67074;SDS011;53990;50.334;18.640;2022-09-12T04:34:18;18.70;;;12.40;;
67074;SDS011;53990;50.334;18.640;2022-09-12T04:36:45;15.10;;;11.10;;
67074;SDS011;53990;50.334;18.640;2022-09-12T04:39:12;15.00;;;10.20;;
67074;SDS011;53990;50.334;18.640;2022-09-12T04:41:39;11.50;;;8.30;;
67074;SDS011;53990;50.334;18.640;2022-09-12T04:44:11;11.30;;;9.10;;
67074;SDS011;53990;50.334;18.640;2022-09-12T04:46:42;12.10;;;8.40;;
67074;SDS011;53990;50.334;18.640;2022-09-12T04:49:11;11.80;;;8.10;;
67074;SDS011;53990;50.334;18.640;2022-09-12T04:51:40;10.60;;;8.00;;
67074;SDS011;53990;50.334;18.640;2022-09-12T04:54:15;12.10;;;8.40;;
67074;SDS011;53990;50.334;18.640;2022-09-12T04:56:45;14.40;;;8.50;;
67074;SDS011;53990;50.334;18.640;2022-09-12T04:59:14;11.50;;;8.70;;
67074;SDS011;53990;50.334;18.640;2022-09-12T05:01:41;12.40;;;7.80;;
67074;SDS011;53990;50.334;18.640;2022-09-12T05:04:10;11.90;;;7.90;;
67074;SDS011;53990;50.334;18.640;2022-09-12T05:06:39;10.40;;;7.40;;
67074;SDS011;53990;50.334;18.640;2022-09-12T05:09:09;12.20;;;8.70;;
67074;SDS011;53990;50.334;18.640;2022-09-12T05:11:39;10.60;;;8.00;;
67074;SDS011;53990;50.334;18.640;2022-09-12T05:14:07;10.60;;;7.90;;
67074;SDS011;53990;50.334;18.640;2022-09-12T05:16:34;17.80;;;7.90;;
67074;SDS011;53990;50.334;18.640;2022-09-12T05:19:01;10.80;;;7.80;;
67074;SDS011;53990;50.334;18.640;2022-09-12T05:21:28;10.50;;;7.80;;
67074;SDS011;53990;50.334;18.640;2022-09-12T05:23:56;9.70;;;7.70;;
67074;SDS011;53990;50.334;18.640;2022-09-12T05:26:26;14.70;;;8.50;;
67074;SDS011;53990;50.334;18.640;2022-09-12T05:28:53;12.60;;;8.60;;
67074;SDS011;53990;50.334;18.640;2022-09-12T05:31:23;13.90;;;8.70;;
67074;SDS011;53990;50.334;18.640;2022-09-12T05:33:52;11.50;;;7.80;;
67074;SDS011;53990;50.334;18.640;2022-09-12T05:36:25;13.70;;;8.20;;
67074;SDS011;53990;50.334;18.640;2022-09-12T05:38:53;10.00;;;7.00;;
67074;SDS011;53990;50.334;18.640;2022-09-12T05:41:22;10.20;;;7.30;;
67074;SDS011;53990;50.334;18.640;2022-09-12T05:43:56;12.70;;;7.60;;
67074;SDS011;53990;50.334;18.640;2022-09-12T05:46:27;10.10;;;6.50;;
67074;SDS011;53990;50.334;18.640;2022-09-12T05:48:55;10.30;;;7.90;;
67074;SDS011;53990;50.334;18.640;2022-09-12T05:51:26;9.80;;;6.80;;
67074;SDS011;53990;50.334;18.640;2022-09-12T05:53:56;11.10;;;7.00;;
67074;SDS011;53990;50.334;18.640;2022-09-12T05:56:28;12.10;;;6.80;;
67074;SDS011;53990;50.334;18.640;2022-09-12T05:59:01;10.90;;;7.00;;
67074;SDS011;53990;50.334;18.640;2022-09-12T06:01:30;9.70;;;7.00;;
67074;SDS011;53990;50.334;18.640;2022-09-12T06:04:00;12.60;;;6.80;;
67074;SDS011;53990;50.334;18.640;2022-09-12T06:06:29;11.00;;;6.60;;
67074;SDS011;53990;50.334;18.640;2022-09-12T06:08:59;13.10;;;7.20;;
67074;SDS011;53990;50.334;18.640;2022-09-12T06:11:29;8.20;;;6.30;;
67074;SDS011;53990;50.334;18.640;2022-09-12T06:13:58;11.20;;;6.00;;
67074;SDS011;53990;50.334;18.640;2022-09-12T06:16:31;9.10;;;5.50;;
67074;SDS011;53990;50.334;18.640;2022-09-12T06:19:02;9.30;;;5.90;;
67074;SDS011;53990;50.334;18.640;2022-09-12T06:21:29;9.10;;;5.90;;
67074;SDS011;53990;50.334;18.640;2022-09-12T06:23:57;10.20;;;6.10;;
67074;SDS011;53990;50.334;18.640;2022-09-12T06:26:26;8.30;;;5.60;;
67074;SDS011;53990;50.334;18.640;2022-09-12T06:28:55;8.30;;;5.00;;
67074;SDS011;53990;50.334;18.640;2022-09-12T06:31:27;9.40;;;5.60;;
67074;SDS011;53990;50.334;18.640;2022-09-12T06:33:56;8.50;;;5.30;;
67074;SDS011;53990;50.334;18.640;2022-09-12T06:36:27;11.40;;;6.50;;
67074;SDS011;53990;50.334;18.640;2022-09-12T06:38:59;7.20;;;5.30;;
67074;SDS011;53990;50.334;18.640;2022-09-12T06:41:28;7.90;;;5.40;;
67074;SDS011;53990;50.334;18.640;2022-09-12T06:43:57;9.40;;;5.80;;
67074;SDS011;53990;50.334;18.640;2022-09-12T06:46:26;8.10;;;5.80;;
67074;SDS011;53990;50.334;18.640;2022-09-12T06:48:57;10.50;;;5.50;;
67074;SDS011;53990;50.334;18.640;2022-09-12T06:51:26;7.20;;;5.40;;
67074;SDS011;53990;50.334;18.640;2022-09-12T06:53:55;12.40;;;6.30;;
67074;SDS011;53990;50.334;18.640;2022-09-12T06:56:25;9.30;;;5.80;;
67074;SDS011;53990;50.334;18.640;2022-09-12T06:58:55;10.00;;;6.00;;
67074;SDS011;53990;50.334;18.640;2022-09-12T07:01:30;7.90;;;4.90;;
67074;SDS011;53990;50.334;18.640;2022-09-12T07:03:59;8.60;;;5.20;;
67074;SDS011;53990;50.334;18.640;2022-09-12T07:06:36;8.60;;;5.20;;
67074;SDS011;53990;50.334;18.640;2022-09-12T07:09:05;8.70;;;5.20;;
67074;SDS011;53990;50.334;18.640;2022-09-12T07:11:35;6.90;;;4.50;;
67074;SDS011;53990;50.334;18.640;2022-09-12T07:14:04;9.10;;;4.60;;
67074;SDS011;53990;50.334;18.640;2022-09-12T07:16:35;7.90;;;4.10;;
67074;SDS011;53990;50.334;18.640;2022-09-12T07:19:05;7.00;;;4.20;;
67074;SDS011;53990;50.334;18.640;2022-09-12T07:21:33;8.80;;;3.60;;
67074;SDS011;53990;50.334;18.640;2022-09-12T07:24:05;8.40;;;3.90;;
67074;SDS011;53990;50.334;18.640;2022-09-12T07:26:34;7.60;;;4.90;;
67074;SDS011;53990;50.334;18.640;2022-09-12T07:29:02;10.00;;;5.40;;
67074;SDS011;53990;50.334;18.640;2022-09-12T07:31:29;6.90;;;4.50;;
67074;SDS011;53990;50.334;18.640;2022-09-12T07:33:56;8.20;;;4.90;;
67074;SDS011;53990;50.334;18.640;2022-09-12T07:36:24;6.10;;;4.10;;
67074;SDS011;53990;50.334;18.640;2022-09-12T07:38:56;7.60;;;4.10;;
67074;SDS011;53990;50.334;18.640;2022-09-12T07:41:27;7.60;;;4.00;;
67074;SDS011;53990;50.334;18.640;2022-09-12T07:43:57;6.70;;;3.20;;
67074;SDS011;53990;50.334;18.640;2022-09-12T07:46:27;7.90;;;4.10;;
67074;SDS011;53990;50.334;18.640;2022-09-12T07:48:56;8.10;;;4.00;;
67074;SDS011;53990;50.334;18.640;2022-09-12T07:51:26;7.30;;;3.90;;
67074;SDS011;53990;50.334;18.640;2022-09-12T07:53:53;6.60;;;3.10;;
67074;SDS011;53990;50.334;18.640;2022-09-12T07:56:23;6.20;;;3.20;;
67074;SDS011;53990;50.334;18.640;2022-09-12T07:58:50;6.60;;;3.70;;
67074;SDS011;53990;50.334;18.640;2022-09-12T08:01:19;6.50;;;4.00;;
67074;SDS011;53990;50.334;18.640;2022-09-12T08:03:53;6.40;;;3.10;;
67074;SDS011;53990;50.334;18.640;2022-09-12T08:06:23;6.10;;;3.10;;
67074;SDS011;53990;50.334;18.640;2022-09-12T08:08:55;4.50;;;3.00;;
67074;SDS011;53990;50.334;18.640;2022-09-12T08:11:24;10.00;;;3.20;;
67074;SDS011;53990;50.334;18.640;2022-09-12T08:13:53;6.60;;;3.30;;
67074;SDS011;53990;50.334;18.640;2022-09-12T08:16:27;7.50;;;3.20;;
67074;SDS011;53990;50.334;18.640;2022-09-12T08:18:56;4.00;;;2.80;;
67074;SDS011;53990;50.334;18.640;2022-09-12T08:21:28;5.60;;;3.10;;
67074;SDS011;53990;50.334;18.640;2022-09-12T08:23:59;6.20;;;3.30;;
67074;SDS011;53990;50.334;18.640;2022-09-12T08:26:27;6.00;;;3.40;;
67074;SDS011;53990;50.334;18.640;2022-09-12T08:28:55;7.40;;;3.20;;
67074;SDS011;53990;50.334;18.640;2022-09-12T08:31:23;7.70;;;3.40;;
67074;SDS011;53990;50.334;18.640;2022-09-12T08:33:55;6.00;;;3.20;;
67074;SDS011;53990;50.334;18.640;2022-09-12T08:36:24;6.80;;;3.00;;
67074;SDS011;53990;50.334;18.640;2022-09-12T08:39:04;7.70;;;3.10;;
67074;SDS011;53990;50.334;18.640;2022-09-12T08:41:38;8.80;;;3.10;;
67074;SDS011;53990;50.334;18.640;2022-09-12T08:49:39;5.70;;;2.80;;
67074;SDS011;53990;50.334;18.640;2022-09-12T08:52:14;7.30;;;3.40;;
67074;SDS011;53990;50.334;18.640;2022-09-12T08:54:43;5.20;;;2.90;;
67074;SDS011;53990;50.334;18.640;2022-09-12T08:57:14;5.80;;;2.80;;
67074;SDS011;53990;50.334;18.640;2022-09-12T08:59:43;6.70;;;2.90;;
67074;SDS011;53990;50.334;18.640;2022-09-12T09:04:57;6.60;;;2.70;;
67074;SDS011;53990;50.334;18.640;2022-09-12T09:18:35;6.40;;;2.70;;
67074;SDS011;53990;50.334;18.640;2022-09-12T09:21:43;4.70;;;2.50;;
67074;SDS011;53990;50.334;18.640;2022-09-12T09:24:13;4.80;;;2.70;;
67074;SDS011;53990;50.334;18.640;2022-09-12T09:26:51;4.40;;;3.00;;
67074;SDS011;53990;50.334;18.640;2022-09-12T09:29:23;4.10;;;2.60;;
67074;SDS011;53990;50.334;18.640;2022-09-12T09:31:54;4.70;;;2.50;;
67074;SDS011;53990;50.334;18.640;2022-09-12T09:34:28;4.10;;;2.50;;
67074;SDS011;53990;50.334;18.640;2022-09-12T09:40:22;5.80;;;2.90;;
67074;SDS011;53990;50.334;18.640;2022-09-12T09:42:58;5.50;;;2.90;;
67074;SDS011;53990;50.334;18.640;2022-09-12T09:45:26;4.50;;;2.90;;
67074;SDS011;53990;50.334;18.640;2022-09-12T09:50:37;6.50;;;2.80;;
67074;SDS011;53990;50.334;18.640;2022-09-12T09:53:06;4.50;;;2.60;;
67074;SDS011;53990;50.334;18.640;2022-09-12T09:55:41;4.80;;;2.60;;
67074;SDS011;53990;50.334;18.640;2022-09-12T09:58:09;4.20;;;2.50;;
67074;SDS011;53990;50.334;18.640;2022-09-12T10:00:37;4.90;;;2.30;;
67074;SDS011;53990;50.334;18.640;2022-09-12T10:05:47;6.40;;;2.90;;
67074;SDS011;53990;50.334;18.640;2022-09-12T10:08:32;5.10;;;2.50;;
67074;SDS011;53990;50.334;18.640;2022-09-12T10:13:55;6.90;;;2.70;;
67074;SDS011;53990;50.334;18.640;2022-09-12T10:16:29;6.10;;;2.70;;
67074;SDS011;53990;50.334;18.640;2022-09-12T10:19:01;4.40;;;2.30;;
67074;SDS011;53990;50.334;18.640;2022-09-12T10:21:50;5.30;;;2.70;;
67074;SDS011;53990;50.334;18.640;2022-09-12T10:24:22;4.20;;;2.50;;
67074;SDS011;53990;50.334;18.640;2022-09-12T10:26:53;5.00;;;2.50;;
67074;SDS011;53990;50.334;18.640;2022-09-12T10:29:30;4.60;;;2.50;;
67074;SDS011;53990;50.334;18.640;2022-09-12T10:32:00;4.50;;;2.40;;
67074;SDS011;53990;50.334;18.640;2022-09-12T10:34:30;5.20;;;2.40;;
67074;SDS011;53990;50.334;18.640;2022-09-12T10:37:04;4.10;;;2.40;;
67074;SDS011;53990;50.334;18.640;2022-09-12T10:39:34;4.20;;;2.40;;
67074;SDS011;53990;50.334;18.640;2022-09-12T10:42:02;4.60;;;2.50;;
67074;SDS011;53990;50.334;18.640;2022-09-12T10:44:33;7.00;;;2.60;;
67074;SDS011;53990;50.334;18.640;2022-09-12T10:47:29;5.40;;;3.00;;
67074;SDS011;53990;50.334;18.640;2022-09-12T10:52:49;5.10;;;2.80;;
67074;SDS011;53990;50.334;18.640;2022-09-12T10:55:16;5.10;;;3.30;;
67074;SDS011;53990;50.334;18.640;2022-09-12T10:58:27;4.10;;;2.50;;
67074;SDS011;53990;50.334;18.640;2022-09-12T11:01:07;4.00;;;2.30;;
67074;SDS011;53990;50.334;18.640;2022-09-12T11:09:44;4.30;;;2.90;;
67074;SDS011;53990;50.334;18.640;2022-09-12T11:12:52;5.00;;;2.50;;
67074;SDS011;53990;50.334;18.640;2022-09-12T11:26:46;4.30;;;2.70;;
67074;SDS011;53990;50.334;18.640;2022-09-12T11:29:28;6.60;;;2.60;;
67074;SDS011;53990;50.334;18.640;2022-09-12T11:38:16;4.20;;;2.50;;
67074;SDS011;53990;50.334;18.640;2022-09-12T11:40:56;5.40;;;3.30;;
67074;SDS011;53990;50.334;18.640;2022-09-12T11:43:37;4.10;;;3.00;;
67074;SDS011;53990;50.334;18.640;2022-09-12T11:46:41;3.70;;;2.30;;
67074;SDS011;53990;50.334;18.640;2022-09-12T11:57:35;4.30;;;2.50;;
67074;SDS011;53990;50.334;18.640;2022-09-12T12:08:16;5.50;;;2.50;;
67074;SDS011;53990;50.334;18.640;2022-09-12T12:10:51;4.80;;;1.80;;
67074;SDS011;53990;50.334;18.640;2022-09-12T12:13:26;4.60;;;2.10;;
67074;SDS011;53990;50.334;18.640;2022-09-12T12:15:58;4.20;;;2.20;;
67074;SDS011;53990;50.334;18.640;2022-09-12T12:18:27;3.20;;;1.90;;
67074;SDS011;53990;50.334;18.640;2022-09-12T12:21:37;3.90;;;2.20;;
67074;SDS011;53990;50.334;18.640;2022-09-12T12:26:43;3.80;;;2.20;;
67074;SDS011;53990;50.334;18.640;2022-09-12T12:34:34;6.20;;;2.00;;
67074;SDS011;53990;50.334;18.640;2022-09-12T12:39:57;5.80;;;1.90;;
67074;SDS011;53990;50.334;18.640;2022-09-12T12:48:15;7.10;;;2.20;;
67074;SDS011;53990;50.334;18.640;2022-09-12T12:50:44;3.50;;;1.60;;
67074;SDS011;53990;50.334;18.640;2022-09-12T12:53:26;3.60;;;1.80;;
67074;SDS011;53990;50.334;18.640;2022-09-12T12:55:55;3.20;;;1.90;;
67074;SDS011;53990;50.334;18.640;2022-09-12T13:01:09;3.50;;;2.30;;
67074;SDS011;53990;50.334;18.640;2022-09-12T13:03:42;5.90;;;2.30;;
67074;SDS011;53990;50.334;18.640;2022-09-12T13:09:03;6.70;;;2.90;;
67074;SDS011;53990;50.334;18.640;2022-09-12T13:14:06;5.60;;;2.80;;
67074;SDS011;53990;50.334;18.640;2022-09-12T13:16:37;5.70;;;2.80;;
67074;SDS011;53990;50.334;18.640;2022-09-12T13:19:17;6.10;;;3.30;;
67074;SDS011;53990;50.334;18.640;2022-09-12T13:22:03;6.10;;;3.00;;
67074;SDS011;53990;50.334;18.640;2022-09-12T13:24:31;4.50;;;3.10;;
67074;SDS011;53990;50.334;18.640;2022-09-12T13:26:59;7.00;;;3.20;;
67074;SDS011;53990;50.334;18.640;2022-09-12T13:29:26;8.10;;;3.40;;
67074;SDS011;53990;50.334;18.640;2022-09-12T13:31:56;9.10;;;4.80;;
67074;SDS011;53990;50.334;18.640;2022-09-12T13:34:29;7.10;;;3.30;;
67074;SDS011;53990;50.334;18.640;2022-09-12T13:40:03;13.60;;;5.00;;
67074;SDS011;53990;50.334;18.640;2022-09-12T13:42:50;10.90;;;5.40;;
67074;SDS011;53990;50.334;18.640;2022-09-12T13:45:24;10.40;;;4.40;;
67074;SDS011;53990;50.334;18.640;2022-09-12T13:47:56;7.20;;;3.00;;
67074;SDS011;53990;50.334;18.640;2022-09-12T13:50:26;6.60;;;2.50;;
67074;SDS011;53990;50.334;18.640;2022-09-12T13:53:21;3.90;;;2.60;;
67074;SDS011;53990;50.334;18.640;2022-09-12T13:55:52;4.70;;;2.60;;
67074;SDS011;53990;50.334;18.640;2022-09-12T14:03:48;4.70;;;2.50;;
67074;SDS011;53990;50.334;18.640;2022-09-12T14:06:49;4.40;;;1.90;;
67074;SDS011;53990;50.334;18.640;2022-09-12T14:09:43;3.20;;;2.00;;
67074;SDS011;53990;50.334;18.640;2022-09-12T14:12:23;6.40;;;2.00;;
67074;SDS011;53990;50.334;18.640;2022-09-12T14:14:51;4.50;;;2.20;;
67074;SDS011;53990;50.334;18.640;2022-09-12T14:17:26;3.80;;;2.40;;
67074;SDS011;53990;50.334;18.640;2022-09-12T14:20:04;4.30;;;2.30;;
67074;SDS011;53990;50.334;18.640;2022-09-12T14:22:34;3.80;;;2.20;;
67074;SDS011;53990;50.334;18.640;2022-09-12T14:25:04;4.10;;;2.30;;
67074;SDS011;53990;50.334;18.640;2022-09-12T14:27:41;4.60;;;2.30;;
67074;SDS011;53990;50.334;18.640;2022-09-12T14:30:34;3.30;;;2.20;;
67074;SDS011;53990;50.334;18.640;2022-09-12T14:35:47;4.00;;;2.50;;
67074;SDS011;53990;50.334;18.640;2022-09-12T14:40:47;7.10;;;3.60;;
67074;SDS011;53990;50.334;18.640;2022-09-12T14:45:57;4.00;;;2.40;;
67074;SDS011;53990;50.334;18.640;2022-09-12T14:48:28;3.20;;;2.20;;
67074;SDS011;53990;50.334;18.640;2022-09-12T14:50:56;8.90;;;2.90;;
67074;SDS011;53990;50.334;18.640;2022-09-12T14:58:31;4.80;;;2.60;;
67074;SDS011;53990;50.334;18.640;2022-09-12T15:01:21;5.50;;;2.70;;
67074;SDS011;53990;50.334;18.640;2022-09-12T15:03:53;6.70;;;2.80;;
67074;SDS011;53990;50.334;18.640;2022-09-12T15:06:31;7.90;;;3.10;;
67074;SDS011;53990;50.334;18.640;2022-09-12T15:09:01;7.70;;;3.10;;
67074;SDS011;53990;50.334;18.640;2022-09-12T15:11:28;7.90;;;3.60;;
67074;SDS011;53990;50.334;18.640;2022-09-12T15:13:55;5.80;;;2.90;;
67074;SDS011;53990;50.334;18.640;2022-09-12T15:16:23;7.40;;;3.00;;
67074;SDS011;53990;50.334;18.640;2022-09-12T15:18:50;5.80;;;2.90;;
67074;SDS011;53990;50.334;18.640;2022-09-12T15:21:18;6.00;;;2.70;;
67074;SDS011;53990;50.334;18.640;2022-09-12T15:23:48;4.30;;;2.50;;
67074;SDS011;53990;50.334;18.640;2022-09-12T15:26:21;8.60;;;3.40;;
67074;SDS011;53990;50.334;18.640;2022-09-12T15:28:49;6.40;;;3.10;;
67074;SDS011;53990;50.334;18.640;2022-09-12T15:33:44;4.40;;;3.00;;
67074;SDS011;53990;50.334;18.640;2022-09-12T15:36:14;6.40;;;2.80;;
67074;SDS011;53990;50.334;18.640;2022-09-12T15:38:43;4.90;;;3.30;;
67074;SDS011;53990;50.334;18.640;2022-09-12T15:41:16;5.70;;;2.90;;
67074;SDS011;53990;50.334;18.640;2022-09-12T15:43:44;5.60;;;3.40;;
67074;SDS011;53990;50.334;18.640;2022-09-12T15:46:14;10.90;;;3.70;;
67074;SDS011;53990;50.334;18.640;2022-09-12T15:48:42;7.90;;;3.50;;
67074;SDS011;53990;50.334;18.640;2022-09-12T15:51:11;7.10;;;3.60;;
67074;SDS011;53990;50.334;18.640;2022-09-12T15:53:39;7.30;;;3.60;;
67074;SDS011;53990;50.334;18.640;2022-09-12T15:56:06;10.20;;;3.30;;
67074;SDS011;53990;50.334;18.640;2022-09-12T15:58:34;7.60;;;3.50;;
67074;SDS011;53990;50.334;18.640;2022-09-12T16:01:01;6.30;;;3.50;;
67074;SDS011;53990;50.334;18.640;2022-09-12T16:03:29;7.90;;;4.00;;
67074;SDS011;53990;50.334;18.640;2022-09-12T16:06:01;7.00;;;4.10;;
67074;SDS011;53990;50.334;18.640;2022-09-12T16:08:30;7.20;;;3.90;;
67074;SDS011;53990;50.334;18.640;2022-09-12T16:11:00;7.90;;;4.00;;
67074;SDS011;53990;50.334;18.640;2022-09-12T16:13:29;8.90;;;4.60;;
67074;SDS011;53990;50.334;18.640;2022-09-12T16:15:57;6.80;;;3.80;;
67074;SDS011;53990;50.334;18.640;2022-09-12T16:18:27;6.80;;;4.10;;
67074;SDS011;53990;50.334;18.640;2022-09-12T16:20:55;9.70;;;4.70;;
67074;SDS011;53990;50.334;18.640;2022-09-12T16:23:23;9.50;;;5.00;;
67074;SDS011;53990;50.334;18.640;2022-09-12T16:26:04;13.20;;;5.80;;
67074;SDS011;53990;50.334;18.640;2022-09-12T16:28:32;10.80;;;5.00;;
67074;SDS011;53990;50.334;18.640;2022-09-12T16:31:03;8.60;;;4.40;;
67074;SDS011;53990;50.334;18.640;2022-09-12T16:33:33;11.50;;;4.80;;
67074;SDS011;53990;50.334;18.640;2022-09-12T16:36:05;8.20;;;4.60;;
67074;SDS011;53990;50.334;18.640;2022-09-12T16:38:33;13.50;;;4.60;;
67074;SDS011;53990;50.334;18.640;2022-09-12T16:41:03;10.90;;;4.60;;
67074;SDS011;53990;50.334;18.640;2022-09-12T16:43:33;9.40;;;4.70;;
67074;SDS011;53990;50.334;18.640;2022-09-12T16:46:07;12.30;;;5.50;;
67074;SDS011;53990;50.334;18.640;2022-09-12T16:48:35;8.60;;;4.20;;
67074;SDS011;53990;50.334;18.640;2022-09-12T16:51:04;10.40;;;5.00;;
67074;SDS011;53990;50.334;18.640;2022-09-12T16:53:35;9.90;;;5.10;;
67074;SDS011;53990;50.334;18.640;2022-09-12T16:56:06;11.00;;;6.10;;
67074;SDS011;53990;50.334;18.640;2022-09-12T16:58:35;11.60;;;6.60;;
67074;SDS011;53990;50.334;18.640;2022-09-12T17:01:10;12.60;;;6.30;;
67074;SDS011;53990;50.334;18.640;2022-09-12T17:03:38;12.90;;;6.00;;
67074;SDS011;53990;50.334;18.640;2022-09-12T17:06:08;9.90;;;5.70;;
67074;SDS011;53990;50.334;18.640;2022-09-12T17:08:38;10.50;;;6.40;;
67074;SDS011;53990;50.334;18.640;2022-09-12T17:11:11;14.70;;;8.40;;
67074;SDS011;53990;50.334;18.640;2022-09-12T17:13:39;17.40;;;9.30;;
67074;SDS011;53990;50.334;18.640;2022-09-12T17:16:08;22.30;;;12.40;;
67074;SDS011;53990;50.334;18.640;2022-09-12T17:18:37;20.80;;;12.20;;
67074;SDS011;53990;50.334;18.640;2022-09-12T17:21:05;19.80;;;11.30;;
67074;SDS011;53990;50.334;18.640;2022-09-12T17:23:36;22.20;;;12.60;;
67074;SDS011;53990;50.334;18.640;2022-09-12T17:26:03;20.70;;;12.50;;
67074;SDS011;53990;50.334;18.640;2022-09-12T17:28:31;19.50;;;11.50;;
67074;SDS011;53990;50.334;18.640;2022-09-12T17:31:00;20.50;;;11.70;;
67074;SDS011;53990;50.334;18.640;2022-09-12T17:33:30;21.60;;;14.30;;
67074;SDS011;53990;50.334;18.640;2022-09-12T17:36:02;22.10;;;14.50;;